Time;durP1;ratioP1;P1;durP2;ratioP2;P2;SDS_P1;SDS_P2;PMS_P1;PMS_P2;Temp;Humidity;BMP_temperature;BMP_pressure;BME280_temperature;BME280_humidity;BME280_pressure;Samples;Min_cycle;Max_cycle;Signal;HPM_P1;HPM_P2
2021/01/10 00:00:41;;;;;;;13.77;7.97;;;;;;;3.36;51.51;102082.09;4989020;28;20535;-73
2021/01/10 00:03:09;;;;;;;14.07;8.05;;;;;;;3.33;51.55;102075.84;4986093;28;20044;-73
2021/01/10 00:05:39;;;;;;;11.75;7.07;;;;;;;3.35;51.61;102077.63;4980044;28;20074;-73
2021/01/10 00:08:07;;;;;;;15.02;8.02;;;;;;;3.32;51.64;102076.78;4990832;28;20030;-73
2021/01/10 00:10:34;;;;;;;16.65;8.43;;;;;;;3.33;51.61;102077.69;4990671;28;20057;-73
2021/01/10 00:13:04;;;;;;;13.23;7.50;;;;;;;3.31;51.85;102068.72;4997611;28;20066;-72
2021/01/10 00:15:33;;;;;;;15.00;8.02;;;;;;;3.32;51.73;102073.19;4983842;28;20088;-72
2021/01/10 00:18:05;;;;;;;15.48;7.95;;;;;;;3.32;51.74;102076.78;4992455;28;20044;-72
2021/01/10 00:20:33;;;;;;;12.45;7.40;;;;;;;3.32;51.68;102070.50;4985459;28;20125;-72
2021/01/10 00:23:03;;;;;;;15.88;8.60;;;;;;;3.32;51.72;102075.91;4991013;28;20038;-72
2021/01/10 00:25:31;;;;;;;13.35;7.05;;;;;;;3.31;51.86;102066.03;4991484;28;20121;-72
2021/01/10 00:27:58;;;;;;;14.63;7.90;;;;;;;3.31;52.02;102061.50;4986085;28;20100;-72
2021/01/10 00:30:27;;;;;;;16.40;8.35;;;;;;;3.31;51.77;102058.78;4983546;28;20088;-72
2021/01/10 00:32:55;;;;;;;16.98;8.10;;;;;;;3.32;51.65;102070.50;4983163;28;20077;-72
2021/01/10 00:35:25;;;;;;;13.60;7.25;;;;;;;3.31;51.63;102061.50;4993310;28;20092;-72
2021/01/10 00:37:54;;;;;;;14.77;7.57;;;;;;;3.31;51.94;102071.44;4989359;28;20042;-72
2021/01/10 00:40:23;;;;;;;15.85;7.97;;;;;;;3.30;51.87;102077.78;4983808;28;20046;-72
2021/01/10 00:42:51;;;;;;;14.68;7.45;;;;;;;3.29;51.97;102078.72;4983799;28;20113;-71
2021/01/10 00:45:19;;;;;;;12.93;7.55;;;;;;;3.30;52.12;102083.19;4987677;28;20057;-72
2021/01/10 00:47:54;;;;;;;13.85;7.50;;;;;;;3.27;51.90;102076.09;4988431;28;20034;-72
2021/01/10 00:50:33;;;;;;;14.25;7.60;;;;;;;3.28;51.71;102071.56;5001823;28;20054;-72
2021/01/10 00:53:05;;;;;;;14.32;7.25;;;;;;;3.27;51.76;102075.19;4990160;28;20449;-72
2021/01/10 00:55:34;;;;;;;13.63;7.95;;;;;;;3.27;51.62;102075.19;4982309;28;20046;-72
2021/01/10 00:58:02;;;;;;;14.70;7.57;;;;;;;3.28;51.80;102075.16;5000442;28;20518;-72
2021/01/10 01:00:29;;;;;;;14.82;7.90;;;;;;;3.28;51.75;102074.28;4999374;28;20046;-72
2021/01/10 01:02:57;;;;;;;13.98;7.35;;;;;;;3.28;51.74;102083.25;4982065;28;20054;-72
2021/01/10 01:05:25;;;;;;;13.55;8.05;;;;;;;3.27;51.84;102080.59;5002845;28;20061;-72
2021/01/10 01:07:57;;;;;;;13.32;7.38;;;;;;;3.28;51.78;102085.97;4995613;28;20043;-72
2021/01/10 01:10:34;;;;;;;14.20;7.50;;;;;;;3.26;51.84;102085.13;4989213;28;20518;-72
2021/01/10 01:13:02;;;;;;;16.20;8.90;;;;;;;3.27;51.62;102086.03;4999529;28;20073;-72
2021/01/10 01:15:29;;;;;;;12.52;7.25;;;;;;;3.28;51.72;102090.50;4992957;28;20050;-72
2021/01/10 01:17:57;;;;;;;14.10;7.47;;;;;;;3.28;51.66;102094.09;4995457;28;20046;-72
2021/01/10 01:20:24;;;;;;;12.68;7.45;;;;;;;3.27;51.75;102092.31;4986575;28;20052;-72
2021/01/10 01:22:51;;;;;;;14.98;7.82;;;;;;;3.28;51.94;102085.97;4988051;28;20039;-72
2021/01/10 01:25:20;;;;;;;14.15;8.13;;;;;;;3.29;51.72;102087.72;4990467;28;20046;-72
2021/01/10 01:27:47;;;;;;;14.05;7.20;;;;;;;3.27;51.73;102081.50;4989584;28;20046;-72
2021/01/10 01:30:15;;;;;;;13.80;7.80;;;;;;;3.29;51.68;102086.81;4984545;28;20039;-72
2021/01/10 01:32:42;;;;;;;14.43;7.72;;;;;;;3.27;51.80;102092.31;4995525;28;20505;-72
2021/01/10 01:35:10;;;;;;;13.02;7.53;;;;;;;3.27;52.06;102095.03;4993980;28;20041;-71
2021/01/10 01:37:38;;;;;;;12.40;7.22;;;;;;;3.28;51.83;102090.50;4988454;28;20042;-72
2021/01/10 01:40:07;;;;;;;15.82;8.35;;;;;;;3.28;51.78;102088.69;4984785;28;20482;-72
2021/01/10 01:42:35;;;;;;;16.60;8.02;;;;;;;3.27;51.54;102095.03;4988176;28;20125;-71
2021/01/10 01:45:06;;;;;;;13.25;7.18;;;;;;;3.28;51.90;102090.50;4993791;28;20061;-72
2021/01/10 01:47:34;;;;;;;14.48;8.13;;;;;;;3.28;51.90;102099.50;4995180;28;20046;-72
2021/01/10 01:50:03;;;;;;;14.45;7.70;;;;;;;3.27;52.04;102099.53;4990197;28;20053;-72
2021/01/10 01:52:31;;;;;;;17.85;8.70;;;;;;;3.27;52.04;102092.31;4984059;28;20038;-72
2021/01/10 01:54:59;;;;;;;16.95;8.13;;;;;;;3.27;51.85;102102.25;4988705;28;20821;-72
2021/01/10 01:57:27;;;;;;;14.15;7.55;;;;;;;3.26;51.96;102106.78;4989572;28;20070;-72
2021/01/10 01:59:55;;;;;;;13.23;7.50;;;;;;;3.28;51.77;102095.91;4987542;28;20069;-72
2021/01/10 02:02:23;;;;;;;14.70;8.05;;;;;;;3.26;51.65;102095.06;4986096;28;20125;-72
2021/01/10 02:04:57;;;;;;;14.38;7.22;;;;;;;3.29;52.02;102094.94;4988139;28;20112;-72
2021/01/10 02:07:29;;;;;;;14.75;7.85;;;;;;;3.27;51.67;102091.44;4992243;28;20058;-72
2021/01/10 02:10:01;;;;;;;14.75;7.82;;;;;;;3.25;51.82;102087.88;4988947;28;20474;-72
2021/01/10 02:12:30;;;;;;;14.05;8.50;;;;;;;3.27;51.59;102086.03;4981925;28;20049;-72
2021/01/10 02:15:06;;;;;;;13.30;7.70;;;;;;;3.27;51.58;102096.84;4993418;28;20113;-72
2021/01/10 02:17:34;;;;;;;14.95;7.95;;;;;;;3.25;51.85;102093.28;4987097;28;20034;-72
2021/01/10 02:20:07;;;;;;;13.70;8.13;;;;;;;3.27;51.75;102088.72;4989096;28;20397;-71
2021/01/10 02:22:43;;;;;;;14.10;8.00;;;;;;;3.26;51.78;102092.38;4987218;28;20042;-72
2021/01/10 02:25:12;;;;;;;14.40;7.82;;;;;;;3.25;51.84;102087.88;4989005;28;20085;-71
2021/01/10 02:27:41;;;;;;;15.20;8.05;;;;;;;3.25;51.66;102085.19;4983041;28;20035;-71
2021/01/10 02:30:11;;;;;;;16.30;8.13;;;;;;;3.25;51.68;102090.59;4991695;28;20046;-71
2021/01/10 02:32:44;;;;;;;11.77;7.50;;;;;;;3.24;51.56;102087.00;4986344;28;20046;-71
2021/01/10 02:35:12;;;;;;;14.27;7.82;;;;;;;3.23;51.90;102085.22;4993729;28;20351;-71
2021/01/10 02:38:03;;;;;;;13.68;7.57;;;;;;;3.25;51.84;102079.78;4993656;28;20405;-71
2021/01/10 02:40:36;;;;;;;15.05;7.80;;;;;;;3.22;51.77;102080.75;4987972;28;20433;-71
2021/01/10 02:43:14;;;;;;;14.77;7.70;;;;;;;3.23;51.70;102085.22;4985722;28;20049;-71
2021/01/10 02:45:45;;;;;;;12.95;7.00;;;;;;;3.21;51.55;102083.50;4988949;28;20062;-71
2021/01/10 02:48:14;;;;;;;13.43;7.32;;;;;;;3.21;51.95;102081.69;4994133;28;20498;-71
2021/01/10 02:50:42;;;;;;;18.10;8.00;;;;;;;3.21;51.72;102094.31;4993417;28;20046;-71
2021/01/10 02:53:10;;;;;;;16.20;8.32;;;;;;;3.20;51.58;102085.38;4987970;28;20039;-71
2021/01/10 02:55:39;;;;;;;13.68;8.23;;;;;;;3.21;51.66;102080.81;4992260;28;20046;-71
2021/01/10 02:58:12;;;;;;;16.88;8.35;;;;;;;3.22;51.71;102080.75;4990808;28;20053;-71
2021/01/10 03:00:42;;;;;;;15.13;8.63;;;;;;;3.19;51.67;102072.78;4987976;28;20040;-71
2021/01/10 03:03:11;;;;;;;14.73;8.15;;;;;;;3.19;51.68;102077.31;4986518;28;20050;-71
2021/01/10 03:05:40;;;;;;;16.45;8.38;;;;;;;3.20;51.70;102077.25;4992591;28;20041;-71
2021/01/10 03:08:08;;;;;;;14.68;8.57;;;;;;;3.20;51.66;102073.66;4991313;28;20042;-71
2021/01/10 03:10:36;;;;;;;22.33;11.10;;;;;;;3.19;52.09;102072.78;4989302;28;20038;-71
2021/01/10 03:13:05;;;;;;;18.60;10.48;;;;;;;3.20;51.94;102076.38;4989971;28;20046;-71
2021/01/10 03:15:33;;;;;;;18.20;9.70;;;;;;;3.19;52.19;102071.91;4986118;28;20034;-71
2021/01/10 03:18:16;;;;;;;18.10;8.80;;;;;;;3.20;51.71;102069.16;4987275;28;20092;-71
2021/01/10 03:20:44;;;;;;;13.98;8.40;;;;;;;3.17;51.64;102071.06;4989490;28;20238;-71
2021/01/10 03:23:11;;;;;;;15.23;8.20;;;;;;;3.19;51.82;102070.06;4991700;28;20049;-71
2021/01/10 03:25:40;;;;;;;12.50;8.07;;;;;;;3.18;51.64;102068.31;4990651;28;20062;-71
2021/01/10 03:28:08;;;;;;;14.32;7.78;;;;;;;3.20;51.75;102062.84;4992442;28;20046;-71
2021/01/10 03:30:36;;;;;;;15.23;8.27;;;;;;;3.18;51.64;102073.72;4985902;28;20049;-71
2021/01/10 03:33:04;;;;;;;14.80;7.35;;;;;;;3.18;51.69;102062.00;4992104;28;21403;-71
2021/01/10 03:35:34;;;;;;;14.18;7.63;;;;;;;3.18;51.69;102064.72;4988194;28;20576;-71
2021/01/10 03:38:04;;;;;;;14.02;7.65;;;;;;;3.18;51.89;102065.59;4990867;28;20096;-70
2021/01/10 03:40:31;;;;;;;14.90;8.00;;;;;;;3.17;51.61;102062.94;4996890;28;20109;-71
2021/01/10 03:43:00;;;;;;;13.45;7.60;;;;;;;3.18;51.80;102062.00;4992662;28;20355;-70
2021/01/10 03:45:28;;;;;;;14.38;8.15;;;;;;;3.17;51.68;102061.13;4992733;28;20414;-71
2021/01/10 03:47:56;;;;;;;12.88;7.15;;;;;;;3.16;51.74;102056.66;4991402;28;20680;-71
2021/01/10 03:50:23;;;;;;;12.93;6.80;;;;;;;3.15;51.71;102057.59;4991173;28;20122;-71
2021/01/10 03:52:51;;;;;;;13.35;6.40;;;;;;;3.14;51.48;102060.34;4991163;28;20050;-71
2021/01/10 03:55:18;;;;;;;11.82;6.82;;;;;;;3.13;51.61;102058.56;4989470;28;20394;-71
2021/01/10 03:57:46;;;;;;;13.48;7.43;;;;;;;3.12;51.72;102052.31;4988443;28;20035;-70
2021/01/10 04:00:13;;;;;;;14.52;7.80;;;;;;;3.12;51.50;102057.72;4992450;28;20057;-71
2021/01/10 04:02:41;;;;;;;12.48;7.53;;;;;;;3.12;51.61;102062.25;4990906;28;20044;-71
2021/01/10 04:05:09;;;;;;;11.63;7.38;;;;;;;3.11;51.56;102066.78;5003853;28;20081;-71
2021/01/10 04:07:36;;;;;;;15.73;7.95;;;;;;;3.11;51.80;102063.19;4992072;28;20094;-71
2021/01/10 04:10:05;;;;;;;14.55;8.02;;;;;;;3.10;51.49;102062.28;4988705;28;20051;-71
2021/01/10 04:12:32;;;;;;;14.70;7.57;;;;;;;3.10;51.54;102058.72;4987181;28;20097;-71
2021/01/10 04:15:00;;;;;;;14.40;7.55;;;;;;;3.10;51.56;102058.72;4990475;28;20038;-71
2021/01/10 04:17:29;;;;;;;13.73;7.30;;;;;;;3.09;51.65;102049.72;4991293;28;20035;-71
2021/01/10 04:19:58;;;;;;;14.57;7.60;;;;;;;3.10;51.52;102053.31;4990529;28;20146;-71
2021/01/10 04:22:25;;;;;;;12.95;7.53;;;;;;;3.08;51.68;102052.47;4989079;28;20066;-71
2021/01/10 04:24:53;;;;;;;15.30;7.47;;;;;;;3.08;51.69;102056.06;4987710;28;20038;-71
2021/01/10 04:27:20;;;;;;;18.23;9.57;;;;;;;3.08;51.74;102056.06;4990308;28;20050;-71
2021/01/10 04:29:52;;;;;;;18.40;9.02;;;;;;;3.06;51.56;102057.03;4989498;28;20073;-71
2021/01/10 04:32:20;;;;;;;18.08;9.18;;;;;;;3.06;51.75;102055.22;4992354;28;20046;-71
2021/01/10 04:34:47;;;;;;;19.08;9.32;;;;;;;3.06;51.55;102052.50;4991736;28;20046;-71
2021/01/10 04:37:17;;;;;;;13.77;7.35;;;;;;;3.07;51.73;102054.28;4978880;28;20447;-71
2021/01/10 04:39:44;;;;;;;14.15;7.45;;;;;;;3.05;51.61;102055.28;5001220;28;20117;-71
2021/01/10 04:42:14;;;;;;;18.35;8.23;;;;;;;3.06;51.74;102052.50;4991778;28;20477;-71
2021/01/10 04:44:42;;;;;;;17.05;8.27;;;;;;;3.06;51.60;102057.91;4992110;28;20070;-71
2021/01/10 04:47:10;;;;;;;16.00;8.27;;;;;;;3.06;51.73;102059.75;4990389;28;21020;-70
2021/01/10 04:49:38;;;;;;;16.60;8.90;;;;;;;3.06;51.63;102068.72;4989583;28;20096;-71
2021/01/10 04:52:07;;;;;;;13.95;7.75;;;;;;;3.07;51.61;102056.09;4997311;28;20046;-71
2021/01/10 04:54:40;;;;;;;17.55;8.30;;;;;;;3.08;51.61;102057.88;4986291;28;20046;-71
2021/01/10 04:57:10;;;;;;;;;;;;;;;2.83;51.86;102063.25;4990420;28;20064;-71
2021/01/10 04:59:40;;;;;;;17.90;8.88;;;;;;;3.02;51.87;102066.22;4983928;28;19977;-71
2021/01/10 05:02:09;;;;;;;14.90;7.93;;;;;;;3.04;51.67;102061.63;4991973;28;20065;-71
2021/01/10 05:04:38;;;;;;;16.77;8.65;;;;;;;3.02;51.49;102045.47;4991078;28;20125;-71
2021/01/10 05:07:05;;;;;;;19.85;9.23;;;;;;;3.03;51.46;102052.66;4991336;28;20050;-71
2021/01/10 05:09:37;;;;;;;19.73;9.77;;;;;;;3.03;51.42;102054.47;4983123;28;20034;-71
2021/01/10 05:12:05;;;;;;;18.58;9.25;;;;;;;3.01;51.28;102049.09;4988579;28;20046;-70
2021/01/10 05:14:33;;;;;;;17.08;7.88;;;;;;;3.01;51.50;102061.75;4982187;28;20074;-71
2021/01/10 05:17:01;;;;;;;18.73;9.27;;;;;;;3.00;51.60;102058.16;4990066;28;20065;-71
2021/01/10 05:19:31;;;;;;;18.55;9.30;;;;;;;2.99;51.44;102056.38;4987652;28;20045;-72
2021/01/10 05:22:05;;;;;;;17.48;9.13;;;;;;;2.99;51.37;102064.50;4987700;28;20058;-72
2021/01/10 05:24:32;;;;;;;17.27;8.63;;;;;;;2.99;51.66;102060.91;4992059;28;20062;-71
2021/01/10 05:27:00;;;;;;;16.25;8.10;;;;;;;2.97;51.76;102044.72;4990007;28;20525;-72
2021/01/10 05:29:30;;;;;;;15.82;8.88;;;;;;;2.99;51.61;102059.09;4990048;28;20482;-72
2021/01/10 05:31:58;;;;;;;14.85;8.55;;;;;;;2.96;51.71;102059.19;4990815;28;20048;-71
2021/01/10 05:34:26;;;;;;;16.05;8.52;;;;;;;2.97;51.59;102052.84;4991489;28;20035;-72
2021/01/10 05:36:54;;;;;;;15.60;7.88;;;;;;;2.97;51.71;102054.66;4990643;28;20031;-72
2021/01/10 05:39:23;;;;;;;13.15;7.28;;;;;;;2.97;51.45;102057.34;4990372;28;20042;-72
2021/01/10 05:41:53;;;;;;;15.98;8.38;;;;;;;2.97;51.59;102060.94;5006516;28;20038;-72
2021/01/10 05:44:21;;;;;;;16.23;8.25;;;;;;;2.95;51.36;102060.16;4989055;28;20051;-71
2021/01/10 05:47:01;;;;;;;14.40;7.72;;;;;;;2.97;51.70;102065.47;4990756;28;20077;-71
2021/01/10 05:49:29;;;;;;;15.57;8.65;;;;;;;2.93;51.55;102062.00;4990209;28;20042;-71
2021/01/10 05:52:07;;;;;;;14.63;8.02;;;;;;;2.96;51.52;102061.03;4988505;28;20508;-72
2021/01/10 05:54:38;;;;;;;15.63;7.70;;;;;;;2.93;51.54;102059.31;4986061;28;20035;-71
2021/01/10 05:57:06;;;;;;;17.20;8.10;;;;;;;2.93;51.46;102059.31;4987163;28;20343;-71
2021/01/10 05:59:36;;;;;;;14.25;7.47;;;;;;;2.92;51.76;102058.44;4989550;28;20038;-71
2021/01/10 06:02:06;;;;;;;16.50;7.97;;;;;;;2.92;51.65;102058.44;4994929;28;20475;-72
2021/01/10 06:04:34;;;;;;;15.20;7.93;;;;;;;2.90;51.33;102060.28;5005884;28;20524;-71
2021/01/10 06:07:04;;;;;;;14.40;7.72;;;;;;;2.89;51.38;102063.94;4994164;28;20034;-72
2021/01/10 06:09:45;;;;;;;14.25;7.18;;;;;;;2.90;51.47;102059.41;4992377;28;20038;-72
2021/01/10 06:12:21;;;;;;;15.60;7.60;;;;;;;2.89;51.51;102057.63;4993699;28;20038;-71
2021/01/10 06:14:49;;;;;;;15.77;8.13;;;;;;;2.83;51.41;102066.84;4990076;28;20529;-72
2021/01/10 06:17:18;;;;;;;18.15;9.73;;;;;;;2.83;51.17;102066.84;4993591;28;20437;-72
2021/01/10 06:19:49;;;;;;;14.63;7.97;;;;;;;2.82;51.13;102064.19;4993213;28;20034;-72
2021/01/10 06:22:17;;;;;;;17.15;8.43;;;;;;;2.78;51.28;102054.44;4994678;28;20043;-72
2021/01/10 06:24:46;;;;;;;17.90;8.35;;;;;;;2.78;51.36;102062.56;4994629;28;20133;-71
2021/01/10 06:27:21;;;;;;;17.42;8.60;;;;;;;2.77;51.50;102063.50;4990501;28;20073;-72
2021/01/10 06:29:53;;;;;;;16.05;8.95;;;;;;;2.75;51.34;102065.34;4989975;28;20030;-72
2021/01/10 06:32:24;;;;;;;15.02;8.07;;;;;;;2.74;51.57;102063.59;4995508;28;20043;-71
2021/01/10 06:34:52;;;;;;;14.82;8.02;;;;;;;2.72;51.61;102060.94;4992900;28;20035;-71
2021/01/10 06:37:20;;;;;;;15.90;8.63;;;;;;;2.72;51.96;102055.53;4988853;28;20069;-72
2021/01/10 06:39:48;;;;;;;18.45;9.65;;;;;;;2.73;51.57;102061.81;4992672;28;20398;-72
2021/01/10 06:42:17;;;;;;;17.55;8.63;;;;;;;2.73;51.76;102068.09;4993202;28;20410;-72
2021/01/10 06:44:51;;;;;;;16.85;8.38;;;;;;;2.75;51.61;102052.72;4994163;28;20048;-71
2021/01/10 06:47:21;;;;;;;14.75;7.40;;;;;;;2.74;51.87;102050.06;4992264;28;20053;-71
2021/01/10 06:49:53;;;;;;;17.58;7.72;;;;;;;2.74;51.89;102066.28;4993483;28;20047;-71
2021/01/10 06:52:24;;;;;;;16.35;8.48;;;;;;;2.76;51.86;102068.00;4994036;28;20096;-72
2021/01/10 06:54:52;;;;;;;17.10;8.27;;;;;;;2.76;51.93;102067.13;4989843;28;20058;-71
2021/01/10 06:57:20;;;;;;;15.65;8.55;;;;;;;2.76;51.69;102062.59;4992847;28;20048;-71
2021/01/10 06:59:58;;;;;;;15.00;7.93;;;;;;;2.78;51.74;102062.56;4993642;28;20054;-71
2021/01/10 07:02:27;;;;;;;14.50;8.30;;;;;;;2.78;51.83;102073.38;4993544;28;20588;-72
2021/01/10 07:05:03;;;;;;;15.95;9.07;;;;;;;2.79;51.64;102070.63;4993232;28;20042;-72
2021/01/10 07:07:38;;;;;;;17.15;8.93;;;;;;;2.80;51.74;102068.75;4992737;28;20075;-71
2021/01/10 07:10:08;;;;;;;15.82;7.60;;;;;;;2.79;51.79;102076.03;4993246;28;20058;-71
2021/01/10 07:12:36;;;;;;;15.95;8.15;;;;;;;2.79;51.89;102072.44;4988343;28;20038;-71
2021/01/10 07:15:29;;;;;;;16.92;8.98;;;;;;;2.81;51.89;102065.13;4990561;28;20053;-71
2021/01/10 07:18:05;;;;;;;16.55;8.75;;;;;;;2.79;51.92;102075.13;4989582;28;20493;-71
2021/01/10 07:20:44;;;;;;;14.98;8.20;;;;;;;2.82;51.80;102084.00;4992887;28;20050;-72
2021/01/10 07:23:29;;;;;;;14.05;7.22;;;;;;;2.80;51.81;102088.56;4988491;28;20069;-71
2021/01/10 07:25:59;;;;;;;13.82;8.63;;;;;;;2.81;51.83;102090.34;4989575;28;20100;-71
2021/01/10 07:28:48;;;;;;;15.93;8.95;;;;;;;2.83;51.79;102085.78;4991228;28;20056;-71
2021/01/10 07:31:20;;;;;;;18.17;9.27;;;;;;;2.82;52.03;102081.28;4992899;28;20057;-71
2021/01/10 07:34:09;;;;;;;16.52;8.40;;;;;;;2.82;51.73;102085.81;4993395;28;20068;-71
2021/01/10 07:36:54;;;;;;;14.80;7.75;;;;;;;2.84;51.86;102081.25;4995366;28;20070;-71
2021/01/10 07:39:23;;;;;;;16.48;8.88;;;;;;;2.83;51.72;102080.38;4991901;28;20053;-71
2021/01/10 07:41:51;;;;;;;16.40;8.55;;;;;;;2.85;51.99;102081.19;4991763;28;20125;-71
2021/01/10 07:44:20;;;;;;;17.98;9.13;;;;;;;2.85;51.89;102080.31;4993081;28;20046;-71
2021/01/10 07:46:52;;;;;;;17.33;8.60;;;;;;;2.88;52.12;102093.69;4996511;28;20044;-71
2021/01/10 07:49:21;;;;;;;18.67;9.95;;;;;;;2.88;51.80;102099.09;4988259;28;20038;-71
2021/01/10 07:51:49;;;;;;;16.98;8.63;;;;;;;2.87;51.89;102094.66;4991608;28;20121;-71
2021/01/10 07:54:19;;;;;;;16.27;9.07;;;;;;;2.90;51.78;102097.25;4994308;28;20035;-71
2021/01/10 07:56:46;;;;;;;19.00;9.43;;;;;;;2.89;51.89;102096.34;4994439;28;20034;-71
2021/01/10 07:59:15;;;;;;;18.02;10.15;;;;;;;2.90;52.09;102099.94;5002657;28;20046;-71
2021/01/10 08:01:49;;;;;;;17.83;9.35;;;;;;;2.92;51.81;102104.38;4992932;28;20127;-71
2021/01/10 08:04:33;;;;;;;18.10;9.77;;;;;;;2.92;51.89;102103.50;4992862;28;20038;-71
2021/01/10 08:07:03;;;;;;;18.38;9.98;;;;;;;2.90;52.04;102097.25;4990645;28;20057;-71
2021/01/10 08:09:32;;;;;;;18.67;9.02;;;;;;;2.91;51.94;102099.00;4999188;28;20046;-71
2021/01/10 08:12:01;;;;;;;21.85;10.43;;;;;;;2.93;52.14;102099.84;4987136;28;20083;-70
2021/01/10 08:14:29;;;;;;;18.73;9.77;;;;;;;2.92;51.71;102103.50;4988625;28;20102;-71
2021/01/10 08:16:56;;;;;;;16.50;9.05;;;;;;;2.92;51.83;102107.06;4991701;28;20505;-71
2021/01/10 08:19:24;;;;;;;19.33;10.02;;;;;;;2.93;51.65;102107.97;4990636;28;20034;-71
2021/01/10 08:21:53;;;;;;;18.83;9.85;;;;;;;2.94;51.84;102107.91;4986352;28;20802;-72
2021/01/10 08:24:20;;;;;;;18.48;9.93;;;;;;;2.94;52.14;102112.44;4991648;28;20053;-71
2021/01/10 08:26:49;;;;;;;18.80;9.98;;;;;;;2.96;52.05;102112.38;4991176;28;20055;-72
2021/01/10 08:29:18;;;;;;;16.13;8.90;;;;;;;2.96;51.98;102115.09;4989694;28;20093;-72
2021/01/10 08:31:50;;;;;;;18.55;9.68;;;;;;;2.98;52.00;102110.50;4986109;28;20120;-71
2021/01/10 08:34:19;;;;;;;17.55;9.05;;;;;;;2.94;51.77;102116.03;4987319;28;20486;-72
2021/01/10 08:36:47;;;;;;;17.25;8.40;;;;;;;2.97;51.83;102119.53;4992787;28;20088;-72
2021/01/10 08:39:18;;;;;;;17.58;10.15;;;;;;;2.98;51.87;102114.06;4987735;28;20117;-72
2021/01/10 08:41:48;;;;;;;18.75;9.80;;;;;;;2.99;52.21;102114.97;4991353;28;20046;-73
2021/01/10 08:44:19;;;;;;;17.10;9.77;;;;;;;3.01;52.04;102111.28;4991590;28;20407;-72
2021/01/10 08:46:49;;;;;;;17.50;9.23;;;;;;;3.00;51.86;102106.81;4989493;28;20064;-72
2021/01/10 08:49:18;;;;;;;19.30;9.18;;;;;;;3.01;51.82;102115.81;5002013;28;20034;-72
2021/01/10 08:51:48;;;;;;;18.58;9.57;;;;;;;3.02;51.96;102117.56;4988210;28;20045;-72
2021/01/10 08:54:20;;;;;;;17.30;9.18;;;;;;;3.02;52.09;102123.88;4990204;28;20058;-72
2021/01/10 08:56:51;;;;;;;15.93;8.88;;;;;;;3.04;51.99;102121.97;4979778;28;20035;-72
2021/01/10 08:59:19;;;;;;;18.60;9.82;;;;;;;3.05;52.10;102130.97;4989652;28;20498;-72
2021/01/10 09:01:47;;;;;;;18.80;9.77;;;;;;;3.06;52.04;102124.63;4991724;28;20038;-72
2021/01/10 09:04:16;;;;;;;19.35;9.95;;;;;;;3.08;51.88;102130.88;4991504;28;20110;-72
2021/01/10 09:07:06;;;;;;;21.42;10.25;;;;;;;3.07;52.10;102129.97;4989399;28;20046;-71
2021/01/10 09:09:41;;;;;;;20.90;10.13;;;;;;;3.09;52.11;102136.22;4985762;28;20050;-72
2021/01/10 09:12:17;;;;;;;18.67;9.38;;;;;;;3.10;52.23;102126.28;4991096;28;20042;-72
2021/01/10 09:14:50;;;;;;;19.55;9.98;;;;;;;3.11;51.90;102131.66;4984369;28;20030;-73
2021/01/10 09:17:24;;;;;;;20.08;9.82;;;;;;;3.11;52.01;102133.47;4988366;28;20063;-72
2021/01/10 09:19:59;;;;;;;20.98;10.35;;;;;;;3.13;51.96;102129.75;4988611;28;20041;-73
2021/01/10 09:22:29;;;;;;;21.35;10.45;;;;;;;3.13;52.08;102134.28;4987997;28;20378;-72
2021/01/10 09:24:56;;;;;;;18.70;9.70;;;;;;;3.13;52.03;102135.16;4991985;28;20113;-72
2021/01/10 09:27:23;;;;;;;22.05;11.57;;;;;;;3.13;51.85;102129.75;4988666;28;21018;-72
2021/01/10 09:30:03;;;;;;;21.20;10.48;;;;;;;3.17;52.07;102149.47;4990476;28;20042;-72
2021/01/10 09:32:32;;;;;;;21.20;10.40;;;;;;;3.16;52.39;102142.28;4992936;28;20508;-73
2021/01/10 09:35:00;;;;;;;22.80;10.63;;;;;;;3.18;52.14;102149.44;4990453;28;20470;-72
2021/01/10 09:37:29;;;;;;;23.27;11.05;;;;;;;3.18;52.22;102141.31;4992657;28;20478;-73
2021/01/10 09:40:07;;;;;;;19.92;10.68;;;;;;;3.22;52.03;102136.66;4990155;28;20462;-72
2021/01/10 09:42:42;;;;;;;22.35;11.07;;;;;;;3.21;52.31;102146.59;4991261;28;20062;-72
2021/01/10 09:45:13;;;;;;;25.45;12.40;;;;;;;3.22;52.25;102151.06;4991938;28;20046;-72
2021/01/10 09:47:50;;;;;;;21.15;10.73;;;;;;;3.22;52.27;102151.06;4990612;28;20105;-72
2021/01/10 09:50:17;;;;;;;23.30;10.60;;;;;;;3.23;52.06;102144.72;4995370;28;20114;-72
2021/01/10 09:52:49;;;;;;;22.30;10.85;;;;;;;3.25;51.93;102145.56;4989650;28;20195;-72
2021/01/10 09:55:17;;;;;;;22.48;11.27;;;;;;;3.24;52.29;102141.09;4993920;28;20030;-71
2021/01/10 09:57:45;;;;;;;21.42;11.02;;;;;;;3.26;52.03;102139.22;4994923;28;20037;-72
2021/01/10 10:00:15;;;;;;;21.60;11.45;;;;;;;3.29;52.36;102139.09;4987474;28;20038;-72
2021/01/10 10:02:44;;;;;;;21.02;10.48;;;;;;;3.29;52.34;102136.38;4996771;28;20044;-71
2021/01/10 10:05:12;;;;;;;20.58;11.20;;;;;;;3.30;52.27;102135.44;4995423;28;20125;-71
2021/01/10 10:07:41;;;;;;;21.98;12.25;;;;;;;3.33;52.25;102137.16;5008525;28;20054;-72
2021/01/10 10:10:24;;;;;;;25.10;12.63;;;;;;;3.35;52.19;102134.41;5002205;28;20044;-71
2021/01/10 10:12:57;;;;;;;18.42;11.00;;;;;;;3.34;52.22;102133.53;5005173;28;20038;-70
2021/01/10 10:15:39;;;;;;;20.77;10.88;;;;;;;3.36;51.96;102136.19;4995865;28;20046;-71
2021/01/10 10:18:09;;;;;;;25.20;11.75;;;;;;;3.33;52.15;102143.47;5002412;28;20151;-71
2021/01/10 10:20:36;;;;;;;22.23;11.43;;;;;;;3.37;52.28;102143.38;4992639;28;20038;-72
2021/01/10 10:23:08;;;;;;;19.00;10.73;;;;;;;3.40;52.11;102140.53;4992118;28;20041;-71
2021/01/10 10:25:36;;;;;;;19.70;9.57;;;;;;;3.39;52.28;102144.19;4990116;28;20149;-71
2021/01/10 10:28:05;;;;;;;21.60;10.32;;;;;;;3.40;52.29;102136.00;4993997;28;20496;-71
2021/01/10 10:30:35;;;;;;;19.63;10.60;;;;;;;3.42;52.28;102134.13;5007015;28;20632;-72
2021/01/10 10:33:04;;;;;;;20.33;9.73;;;;;;;3.43;52.18;102133.22;4997533;28;20379;-72
2021/01/10 10:35:32;;;;;;;19.90;10.45;;;;;;;3.45;52.08;102133.16;4991065;28;20046;-72
2021/01/10 10:37:59;;;;;;;22.13;11.25;;;;;;;3.46;52.31;102134.91;4992390;28;20501;-71
2021/01/10 10:40:28;;;;;;;22.05;10.57;;;;;;;3.47;52.14;102123.13;4984657;28;20057;-72
2021/01/10 10:42:55;;;;;;;20.58;10.48;;;;;;;3.48;52.11;102125.78;5006992;28;20038;-73
2021/01/10 10:45:23;;;;;;;19.88;10.18;;;;;;;3.50;52.12;102126.63;4992155;28;20049;-73
2021/01/10 10:47:51;;;;;;;20.60;11.32;;;;;;;3.52;52.24;102123.88;4991382;28;20054;-72
2021/01/10 10:50:19;;;;;;;24.05;11.90;;;;;;;3.54;52.13;102130.09;4987407;28;20550;-72
2021/01/10 10:52:46;;;;;;;19.85;11.48;;;;;;;3.54;52.33;102122.84;5008231;28;20034;-73
2021/01/10 10:55:14;;;;;;;20.05;11.00;;;;;;;3.57;52.25;102119.16;4993400;28;20117;-72
2021/01/10 10:57:42;;;;;;;18.77;10.27;;;;;;;3.60;52.44;102119.06;4986944;28;20121;-72
2021/01/10 11:00:11;;;;;;;19.33;10.38;;;;;;;3.62;52.30;102119.91;4992729;28;20074;-72
2021/01/10 11:02:39;;;;;;;19.80;11.00;;;;;;;3.62;52.56;102119.91;4994602;28;20510;-72
2021/01/10 11:05:08;;;;;;;18.63;10.60;;;;;;;3.66;52.43;102116.16;4987914;28;20034;-72
2021/01/10 11:07:36;;;;;;;18.50;9.82;;;;;;;3.66;52.17;102108.91;4992795;28;20058;-72
2021/01/10 11:10:05;;;;;;;20.02;10.65;;;;;;;3.70;52.31;102115.06;4991119;28;20148;-72
2021/01/10 11:12:32;;;;;;;18.60;9.52;;;;;;;3.73;52.44;102116.78;4986321;28;20046;-72
2021/01/10 11:15:00;;;;;;;18.83;10.20;;;;;;;3.74;52.51;102114.03;4994020;28;20046;-72
2021/01/10 11:17:29;;;;;;;19.58;10.85;;;;;;;3.77;52.27;102107.63;4994407;28;20042;-72
2021/01/10 11:19:56;;;;;;;18.63;10.30;;;;;;;3.78;52.18;102102.16;4978132;28;20046;-72
2021/01/10 11:22:28;;;;;;;18.65;10.48;;;;;;;3.81;52.26;102102.03;4993947;28;20053;-72
2021/01/10 11:24:56;;;;;;;16.88;8.98;;;;;;;3.79;51.99;102103.91;4993852;28;20065;-72
2021/01/10 11:27:23;;;;;;;17.38;9.00;;;;;;;3.82;52.29;102098.38;4994150;28;20066;-73
2021/01/10 11:29:51;;;;;;;18.17;9.73;;;;;;;3.84;52.10;102095.63;4992419;28;20038;-73
2021/01/10 11:32:18;;;;;;;14.68;8.43;;;;;;;3.85;52.14;102095.56;4994634;28;20046;-73
2021/01/10 11:34:46;;;;;;;14.55;8.50;;;;;;;3.87;51.92;102095.50;4993772;28;20128;-72
2021/01/10 11:37:13;;;;;;;17.77;10.07;;;;;;;3.87;52.00;102096.38;4993928;28;20045;-72